sensor_id;sensor_type;location;lat;lon;timestamp;pressure;altitude;pressure_sealevel;temperature;humidity
18022;BME280;9136;48.822;7.966;2022-08-19T06:16:03;99952.69;;;20.05;100.00
18022;BME280;9136;48.822;7.966;2022-08-19T06:18:52;99946.53;;;20.15;100.00
18022;BME280;9136;48.822;7.966;2022-08-19T06:21:42;99956.50;;;20.24;100.00
18022;BME280;9136;48.822;7.966;2022-08-19T06:24:30;99958.72;;;20.42;100.00
18022;BME280;9136;48.822;7.966;2022-08-19T06:27:18;99961.56;;;20.51;100.00
18022;BME280;9136;48.822;7.966;2022-08-19T06:30:07;99960.19;;;20.46;100.00
18022;BME280;9136;48.822;7.966;2022-08-19T06:32:56;99950.69;;;20.30;100.00
18022;BME280;9136;48.822;7.966;2022-08-19T06:35:44;99973.75;;;20.32;100.00
18022;BME280;9136;48.822;7.966;2022-08-19T06:38:32;99967.91;;;20.26;100.00
18022;BME280;9136;48.822;7.966;2022-08-19T06:41:20;99970.50;;;20.39;100.00
18022;BME280;9136;48.822;7.966;2022-08-19T06:44:08;99982.44;;;20.46;100.00
18022;BME280;9136;48.822;7.966;2022-08-19T06:46:56;99971.63;;;20.48;100.00
18022;BME280;9136;48.822;7.966;2022-08-19T06:49:45;99981.44;;;20.47;100.00
18022;BME280;9136;48.822;7.966;2022-08-19T06:52:34;99971.75;;;20.46;100.00
18022;BME280;9136;48.822;7.966;2022-08-19T06:55:22;99978.06;;;20.56;100.00
18022;BME280;9136;48.822;7.966;2022-08-19T06:58:10;99993.13;;;20.69;100.00
18022;BME280;9136;48.822;7.966;2022-08-19T07:00:59;99976.72;;;20.62;100.00
18022;BME280;9136;48.822;7.966;2022-08-19T07:03:48;99988.38;;;20.72;100.00
18022;BME280;9136;48.822;7.966;2022-08-19T07:06:37;99980.50;;;20.82;100.00
18022;BME280;9136;48.822;7.966;2022-08-19T07:09:26;99985.34;;;20.88;100.00
18022;BME280;9136;48.822;7.966;2022-08-19T07:12:14;99981.00;;;20.87;100.00
18022;BME280;9136;48.822;7.966;2022-08-19T07:15:03;99974.69;;;20.77;100.00
18022;BME280;9136;48.822;7.966;2022-08-19T07:17:51;99973.13;;;20.85;100.00
18022;BME280;9136;48.822;7.966;2022-08-19T07:20:39;99968.09;;;20.92;100.00
18022;BME280;9136;48.822;7.966;2022-08-19T07:23:29;99981.56;;;21.13;100.00
18022;BME280;9136;48.822;7.966;2022-08-19T07:26:19;99972.72;;;21.24;100.00
18022;BME280;9136;48.822;7.966;2022-08-19T07:29:07;99969.13;;;21.57;100.00
18022;BME280;9136;48.822;7.966;2022-08-19T07:31:56;99985.81;;;21.81;100.00
18022;BME280;9136;48.822;7.966;2022-08-19T07:34:44;99967.69;;;21.85;100.00
18022;BME280;9136;48.822;7.966;2022-08-19T07:37:32;100007.03;;;21.94;100.00
18022;BME280;9136;48.822;7.966;2022-08-19T07:40:24;100000.41;;;22.09;100.00
18022;BME280;9136;48.822;7.966;2022-08-19T07:43:12;99983.50;;;22.20;100.00
18022;BME280;9136;48.822;7.966;2022-08-19T07:46:01;99984.50;;;22.28;100.00
18022;BME280;9136;48.822;7.966;2022-08-19T07:48:50;100003.38;;;22.48;100.00
18022;BME280;9136;48.822;7.966;2022-08-19T07:51:38;99996.06;;;22.50;100.00
18022;BME280;9136;48.822;7.966;2022-08-19T07:54:29;99974.81;;;22.58;100.00
18022;BME280;9136;48.822;7.966;2022-08-19T07:57:19;99974.75;;;22.90;100.00
18022;BME280;9136;48.822;7.966;2022-08-19T08:00:07;99976.25;;;23.23;100.00
18022;BME280;9136;48.822;7.966;2022-08-19T08:02:55;99972.06;;;23.40;100.00
18022;BME280;9136;48.822;7.966;2022-08-19T08:05:43;99990.06;;;23.68;100.00
18022;BME280;9136;48.822;7.966;2022-08-19T08:08:48;99967.22;;;23.74;100.00
18022;BME280;9136;48.822;7.966;2022-08-19T08:11:57;99969.47;;;23.88;100.00
18022;BME280;9136;48.822;7.966;2022-08-19T08:14:49;99989.75;;;24.20;100.00
18022;BME280;9136;48.822;7.966;2022-08-19T08:17:37;99969.28;;;24.19;98.11
18022;BME280;9136;48.822;7.966;2022-08-19T08:20:25;99973.81;;;24.09;100.00
18022;BME280;9136;48.822;7.966;2022-08-19T08:23:13;99993.88;;;24.24;98.45
18022;BME280;9136;48.822;7.966;2022-08-19T08:26:11;99976.47;;;24.28;98.44
18022;BME280;9136;48.822;7.966;2022-08-19T08:29:00;99977.78;;;24.05;97.71
18022;BME280;9136;48.822;7.966;2022-08-19T08:31:50;99972.97;;;24.18;98.75
18022;BME280;9136;48.822;7.966;2022-08-19T08:34:37;99983.69;;;24.27;94.17
18022;BME280;9136;48.822;7.966;2022-08-19T08:37:25;99972.81;;;24.10;97.12
18022;BME280;9136;48.822;7.966;2022-08-19T08:40:19;99995.44;;;24.17;93.32
18022;BME280;9136;48.822;7.966;2022-08-19T08:43:16;99973.41;;;24.13;95.19
18022;BME280;9136;48.822;7.966;2022-08-19T08:46:10;99994.44;;;24.27;95.83
18022;BME280;9136;48.822;7.966;2022-08-19T08:49:06;100014.63;;;24.12;92.77
18022;BME280;9136;48.822;7.966;2022-08-19T08:52:02;99999.41;;;23.74;95.99
18022;BME280;9136;48.822;7.966;2022-08-19T08:54:54;100009.34;;;23.53;98.92
18022;BME280;9136;48.822;7.966;2022-08-19T08:57:51;100011.22;;;23.62;98.07
18022;BME280;9136;48.822;7.966;2022-08-19T09:00:45;100006.13;;;23.59;99.28
18022;BME280;9136;48.822;7.966;2022-08-19T09:03:33;100002.50;;;23.89;100.00
18022;BME280;9136;48.822;7.966;2022-08-19T09:06:29;99993.75;;;23.87;94.66
18022;BME280;9136;48.822;7.966;2022-08-19T09:09:30;100004.78;;;24.13;96.78
18022;BME280;9136;48.822;7.966;2022-08-19T09:12:25;100007.00;;;24.17;94.97
18022;BME280;9136;48.822;7.966;2022-08-19T09:15:25;99988.91;;;24.29;93.38
18022;BME280;9136;48.822;7.966;2022-08-19T09:18:16;100003.19;;;24.30;92.76
18022;BME280;9136;48.822;7.966;2022-08-19T09:21:04;100012.84;;;24.32;91.88
18022;BME280;9136;48.822;7.966;2022-08-19T09:23:55;100003.63;;;24.44;92.82
18022;BME280;9136;48.822;7.966;2022-08-19T09:26:43;100013.69;;;24.79;87.85
18022;BME280;9136;48.822;7.966;2022-08-19T09:29:32;100015.03;;;25.13;84.70
18022;BME280;9136;48.822;7.966;2022-08-19T09:32:20;100003.97;;;25.43;79.47
18022;BME280;9136;48.822;7.966;2022-08-19T09:35:08;100001.13;;;25.72;83.99
18022;BME280;9136;48.822;7.966;2022-08-19T09:37:58;100005.84;;;25.60;74.25
18022;BME280;9136;48.822;7.966;2022-08-19T09:40:48;100029.72;;;25.91;74.46
18022;BME280;9136;48.822;7.966;2022-08-19T09:43:36;100003.38;;;25.49;73.41
18022;BME280;9136;48.822;7.966;2022-08-19T09:46:26;100011.56;;;25.93;75.75
18022;BME280;9136;48.822;7.966;2022-08-19T09:49:15;100015.72;;;26.23;70.86
18022;BME280;9136;48.822;7.966;2022-08-19T09:52:03;100015.94;;;26.30;70.68
18022;BME280;9136;48.822;7.966;2022-08-19T09:54:52;100008.72;;;26.12;67.13
18022;BME280;9136;48.822;7.966;2022-08-19T09:57:41;100010.13;;;26.16;69.20
18022;BME280;9136;48.822;7.966;2022-08-19T10:00:29;100008.06;;;25.65;73.75
18022;BME280;9136;48.822;7.966;2022-08-19T10:03:18;100023.94;;;25.86;74.35
18022;BME280;9136;48.822;7.966;2022-08-19T10:06:05;100035.13;;;25.91;75.41
18022;BME280;9136;48.822;7.966;2022-08-19T10:08:55;100038.72;;;26.35;74.64
18022;BME280;9136;48.822;7.966;2022-08-19T10:11:45;100035.34;;;25.98;71.47
18022;BME280;9136;48.822;7.966;2022-08-19T10:14:37;100022.59;;;26.00;73.65
18022;BME280;9136;48.822;7.966;2022-08-19T10:17:25;100032.88;;;26.40;69.81
18022;BME280;9136;48.822;7.966;2022-08-19T10:20:13;100031.06;;;26.66;70.04
18022;BME280;9136;48.822;7.966;2022-08-19T10:23:01;100028.34;;;26.92;67.62
18022;BME280;9136;48.822;7.966;2022-08-19T10:25:49;100016.25;;;27.22;65.03
18022;BME280;9136;48.822;7.966;2022-08-19T10:28:39;100021.28;;;26.65;62.62
18022;BME280;9136;48.822;7.966;2022-08-19T10:31:30;100021.50;;;26.28;64.09
18022;BME280;9136;48.822;7.966;2022-08-19T10:34:18;100022.56;;;26.35;64.03
18022;BME280;9136;48.822;7.966;2022-08-19T10:37:06;100034.00;;;26.81;61.63
18022;BME280;9136;48.822;7.966;2022-08-19T10:39:54;100016.16;;;27.06;63.54
18022;BME280;9136;48.822;7.966;2022-08-19T10:42:42;100015.56;;;26.94;59.32
18022;BME280;9136;48.822;7.966;2022-08-19T10:45:30;100015.75;;;27.27;59.48
18022;BME280;9136;48.822;7.966;2022-08-19T10:48:19;100020.41;;;27.17;60.24
18022;BME280;9136;48.822;7.966;2022-08-19T10:51:08;100008.09;;;26.36;65.41
18022;BME280;9136;48.822;7.966;2022-08-19T10:54:13;99987.13;;;25.86;67.70
18022;BME280;9136;48.822;7.966;2022-08-19T10:57:01;99998.88;;;26.03;69.56
18022;BME280;9136;48.822;7.966;2022-08-19T10:59:48;100009.44;;;25.96;70.12
18022;BME280;9136;48.822;7.966;2022-08-19T11:02:36;100002.25;;;26.23;70.58
18022;BME280;9136;48.822;7.966;2022-08-19T11:05:26;100006.34;;;26.09;67.94
18022;BME280;9136;48.822;7.966;2022-08-19T11:08:13;99995.66;;;26.00;69.07
18022;BME280;9136;48.822;7.966;2022-08-19T11:11:02;100003.94;;;26.24;70.43
18022;BME280;9136;48.822;7.966;2022-08-19T11:13:49;99982.97;;;26.10;69.63
18022;BME280;9136;48.822;7.966;2022-08-19T11:16:38;99978.50;;;26.01;68.46
18022;BME280;9136;48.822;7.966;2022-08-19T11:19:26;99991.28;;;26.16;66.42
18022;BME280;9136;48.822;7.966;2022-08-19T11:22:15;99979.66;;;26.60;63.67
18022;BME280;9136;48.822;7.966;2022-08-19T11:25:04;99969.91;;;26.93;61.63
18022;BME280;9136;48.822;7.966;2022-08-19T11:27:52;99970.13;;;27.42;60.75
18022;BME280;9136;48.822;7.966;2022-08-19T11:30:40;99977.22;;;27.59;57.43
18022;BME280;9136;48.822;7.966;2022-08-19T11:33:28;99971.72;;;26.84;60.20
18022;BME280;9136;48.822;7.966;2022-08-19T11:36:16;99964.19;;;28.93;51.74
18022;BME280;9136;48.822;7.966;2022-08-19T11:39:11;99966.63;;;30.79;45.11
18022;BME280;9136;48.822;7.966;2022-08-19T11:41:59;99974.28;;;29.77;45.27
18022;BME280;9136;48.822;7.966;2022-08-19T11:44:48;99976.88;;;30.16;43.96
18022;BME280;9136;48.822;7.966;2022-08-19T11:47:36;99963.50;;;29.92;42.79
18022;BME280;9136;48.822;7.966;2022-08-19T11:50:24;99961.63;;;29.39;42.51
18022;BME280;9136;48.822;7.966;2022-08-19T11:53:12;99955.44;;;28.91;44.46
18022;BME280;9136;48.822;7.966;2022-08-19T11:56:02;99954.06;;;29.65;44.13
18022;BME280;9136;48.822;7.966;2022-08-19T11:58:51;99946.88;;;30.85;41.22
18022;BME280;9136;48.822;7.966;2022-08-19T12:01:39;99933.91;;;32.38;37.08
18022;BME280;9136;48.822;7.966;2022-08-19T12:04:28;99945.72;;;32.24;35.26
18022;BME280;9136;48.822;7.966;2022-08-19T12:07:16;99927.97;;;32.84;35.25
18022;BME280;9136;48.822;7.966;2022-08-19T12:10:04;99953.47;;;34.05;34.81
18022;BME280;9136;48.822;7.966;2022-08-19T12:12:54;99930.13;;;33.09;33.62
18022;BME280;9136;48.822;7.966;2022-08-19T12:15:41;99942.41;;;33.39;35.74
18022;BME280;9136;48.822;7.966;2022-08-19T12:18:31;99936.25;;;34.25;34.17
18022;BME280;9136;48.822;7.966;2022-08-19T12:21:24;99925.53;;;34.63;34.51
18022;BME280;9136;48.822;7.966;2022-08-19T12:24:14;99912.09;;;35.64;31.23
18022;BME280;9136;48.822;7.966;2022-08-19T12:27:02;99930.91;;;34.83;31.15
18022;BME280;9136;48.822;7.966;2022-08-19T12:29:51;99926.66;;;35.13;30.63
18022;BME280;9136;48.822;7.966;2022-08-19T12:32:39;99929.47;;;32.31;33.31
18022;BME280;9136;48.822;7.966;2022-08-19T12:35:27;99926.94;;;30.93;35.94
18022;BME280;9136;48.822;7.966;2022-08-19T12:38:17;99929.03;;;31.42;36.58
18022;BME280;9136;48.822;7.966;2022-08-19T12:41:08;99919.81;;;31.21;36.61
18022;BME280;9136;48.822;7.966;2022-08-19T12:43:56;99928.72;;;33.19;33.52
18022;BME280;9136;48.822;7.966;2022-08-19T12:46:46;99924.56;;;35.02;33.74
18022;BME280;9136;48.822;7.966;2022-08-19T12:49:36;99938.75;;;35.69;28.85
18022;BME280;9136;48.822;7.966;2022-08-19T12:52:25;99922.53;;;35.36;29.67
18022;BME280;9136;48.822;7.966;2022-08-19T12:55:13;99930.53;;;34.79;30.33
18022;BME280;9136;48.822;7.966;2022-08-19T12:58:01;99931.38;;;33.54;31.29
18022;BME280;9136;48.822;7.966;2022-08-19T13:00:49;99932.38;;;30.93;36.02
18022;BME280;9136;48.822;7.966;2022-08-19T13:03:39;99928.13;;;29.93;38.30
18022;BME280;9136;48.822;7.966;2022-08-19T13:06:27;99924.31;;;30.85;36.77
18022;BME280;9136;48.822;7.966;2022-08-19T13:09:15;99925.25;;;31.79;34.30
18022;BME280;9136;48.822;7.966;2022-08-19T13:12:03;99944.75;;;32.94;33.40
18022;BME280;9136;48.822;7.966;2022-08-19T13:14:54;99935.53;;;33.43;31.97
18022;BME280;9136;48.822;7.966;2022-08-19T13:17:42;99918.88;;;33.12;32.37
18022;BME280;9136;48.822;7.966;2022-08-19T13:20:32;99915.78;;;31.02;35.41
18022;BME280;9136;48.822;7.966;2022-08-19T13:23:20;99932.81;;;29.77;37.19
18022;BME280;9136;48.822;7.966;2022-08-19T13:26:09;99935.41;;;29.08;39.25
18022;BME280;9136;48.822;7.966;2022-08-19T13:28:57;99918.78;;;29.50;38.18
18022;BME280;9136;48.822;7.966;2022-08-19T13:32:03;99922.19;;;29.90;37.84
18022;BME280;9136;48.822;7.966;2022-08-19T13:35:08;99920.50;;;30.64;37.13
18022;BME280;9136;48.822;7.966;2022-08-19T13:37:57;99902.72;;;30.47;36.97
18022;BME280;9136;48.822;7.966;2022-08-19T13:40:50;99904.00;;;29.99;38.32
18022;BME280;9136;48.822;7.966;2022-08-19T13:43:38;99907.44;;;31.98;34.99
18022;BME280;9136;48.822;7.966;2022-08-19T13:46:26;99890.66;;;32.15;33.67
18022;BME280;9136;48.822;7.966;2022-08-19T13:49:16;99896.72;;;31.89;34.87
18022;BME280;9136;48.822;7.966;2022-08-19T13:52:04;99902.25;;;32.93;33.99
18022;BME280;9136;48.822;7.966;2022-08-19T13:54:54;99916.13;;;31.86;34.28
18022;BME280;9136;48.822;7.966;2022-08-19T13:57:42;99894.19;;;31.09;34.53
18022;BME280;9136;48.822;7.966;2022-08-19T14:00:34;99894.81;;;33.28;33.34
18022;BME280;9136;48.822;7.966;2022-08-19T14:03:22;99906.94;;;36.31;28.70
18022;BME280;9136;48.822;7.966;2022-08-19T14:06:09;99909.75;;;36.67;26.99
18022;BME280;9136;48.822;7.966;2022-08-19T14:08:57;99911.31;;;38.25;25.48
18022;BME280;9136;48.822;7.966;2022-08-19T14:11:47;99906.34;;;36.04;27.58
18022;BME280;9136;48.822;7.966;2022-08-19T14:14:37;99909.84;;;32.35;32.91
18022;BME280;9136;48.822;7.966;2022-08-19T14:17:25;99899.97;;;31.06;34.44
18022;BME280;9136;48.822;7.966;2022-08-19T14:20:13;99901.47;;;31.23;33.77
18022;BME280;9136;48.822;7.966;2022-08-19T14:23:02;99894.50;;;33.51;31.50
18022;BME280;9136;48.822;7.966;2022-08-19T14:25:51;99904.25;;;34.91;28.52
18022;BME280;9136;48.822;7.966;2022-08-19T14:28:45;99897.84;;;35.17;27.05
18022;BME280;9136;48.822;7.966;2022-08-19T14:31:33;99901.66;;;35.54;27.16
18022;BME280;9136;48.822;7.966;2022-08-19T14:34:20;99891.00;;;33.16;29.01
18022;BME280;9136;48.822;7.966;2022-08-19T14:37:08;99885.66;;;31.48;30.53
18022;BME280;9136;48.822;7.966;2022-08-19T14:39:56;99876.06;;;31.16;32.44
18022;BME280;9136;48.822;7.966;2022-08-19T14:42:44;99885.50;;;30.25;32.94
18022;BME280;9136;48.822;7.966;2022-08-19T14:45:36;99875.16;;;29.45;34.59
18022;BME280;9136;48.822;7.966;2022-08-19T14:48:24;99879.59;;;29.38;34.28
18022;BME280;9136;48.822;7.966;2022-08-19T14:51:12;99885.22;;;29.05;35.27
18022;BME280;9136;48.822;7.966;2022-08-19T14:54:00;99860.13;;;28.80;35.78
18022;BME280;9136;48.822;7.966;2022-08-19T14:56:48;99868.66;;;29.00;36.15
18022;BME280;9136;48.822;7.966;2022-08-19T14:59:36;99862.56;;;29.06;35.74
18022;BME280;9136;48.822;7.966;2022-08-19T15:02:26;99866.06;;;29.38;34.63
18022;BME280;9136;48.822;7.966;2022-08-19T15:05:13;99859.84;;;29.98;34.24
18022;BME280;9136;48.822;7.966;2022-08-19T15:08:03;99849.25;;;30.41;34.53
18022;BME280;9136;48.822;7.966;2022-08-19T15:10:51;99851.75;;;30.57;35.30
18022;BME280;9136;48.822;7.966;2022-08-19T15:13:39;99858.88;;;30.43;35.58
18022;BME280;9136;48.822;7.966;2022-08-19T15:16:27;99862.25;;;29.93;37.35
18022;BME280;9136;48.822;7.966;2022-08-19T15:19:16;99880.19;;;30.76;36.46
18022;BME280;9136;48.822;7.966;2022-08-19T15:22:06;99872.22;;;31.40;34.35
18022;BME280;9136;48.822;7.966;2022-08-19T15:24:54;99880.22;;;31.12;35.45
18022;BME280;9136;48.822;7.966;2022-08-19T15:27:42;99863.75;;;31.28;35.40
18022;BME280;9136;48.822;7.966;2022-08-19T15:30:30;99865.53;;;31.21;35.22
18022;BME280;9136;48.822;7.966;2022-08-19T15:33:19;99888.53;;;30.74;35.35
18022;BME280;9136;48.822;7.966;2022-08-19T15:36:08;99865.25;;;30.51;36.11
18022;BME280;9136;48.822;7.966;2022-08-19T15:38:58;99882.81;;;30.55;37.05
18022;BME280;9136;48.822;7.966;2022-08-19T15:41:46;99875.91;;;30.52;36.41
18022;BME280;9136;48.822;7.966;2022-08-19T15:44:34;99895.69;;;30.00;37.47
18022;BME280;9136;48.822;7.966;2022-08-19T15:47:22;99906.41;;;29.25;40.18
18022;BME280;9136;48.822;7.966;2022-08-19T15:50:12;99896.88;;;28.67;40.75
18022;BME280;9136;48.822;7.966;2022-08-19T15:53:04;99887.63;;;28.37;41.57
18022;BME280;9136;48.822;7.966;2022-08-19T15:55:52;99892.72;;;28.87;41.35
18022;BME280;9136;48.822;7.966;2022-08-19T15:58:40;99907.47;;;29.16;40.89
18022;BME280;9136;48.822;7.966;2022-08-19T16:01:46;99901.78;;;28.55;40.91
18022;BME280;9136;48.822;7.966;2022-08-19T16:04:51;99909.44;;;28.35;41.98
18022;BME280;9136;48.822;7.966;2022-08-19T16:07:58;99904.00;;;28.51;42.04
18022;BME280;9136;48.822;7.966;2022-08-19T16:10:47;99924.56;;;28.69;40.81
18022;BME280;9136;48.822;7.966;2022-08-19T16:13:35;99914.31;;;28.48;41.89
18022;BME280;9136;48.822;7.966;2022-08-19T16:16:24;99896.13;;;28.01;41.90
18022;BME280;9136;48.822;7.966;2022-08-19T16:19:15;99893.94;;;28.05;42.09
18022;BME280;9136;48.822;7.966;2022-08-19T16:22:04;99893.88;;;28.37;42.96
18022;BME280;9136;48.822;7.966;2022-08-19T16:24:52;99892.16;;;28.61;41.14
18022;BME280;9136;48.822;7.966;2022-08-19T16:27:41;99896.78;;;28.36;41.38
18022;BME280;9136;48.822;7.966;2022-08-19T16:30:29;99896.63;;;28.29;41.01
18022;BME280;9136;48.822;7.966;2022-08-19T16:33:18;99899.50;;;28.19;41.12
18022;BME280;9136;48.822;7.966;2022-08-19T16:36:08;99900.50;;;28.18;41.16
18022;BME280;9136;48.822;7.966;2022-08-19T16:38:56;99892.38;;;28.27;41.79
18022;BME280;9136;48.822;7.966;2022-08-19T16:41:45;99900.47;;;28.43;41.05
18022;BME280;9136;48.822;7.966;2022-08-19T16:44:36;99895.41;;;28.23;40.35
18022;BME280;9136;48.822;7.966;2022-08-19T16:47:26;99900.34;;;28.04;40.82
18022;BME280;9136;48.822;7.966;2022-08-19T16:50:14;99912.66;;;28.06;41.15
18022;BME280;9136;48.822;7.966;2022-08-19T16:53:02;99902.03;;;27.88;41.03
18022;BME280;9136;48.822;7.966;2022-08-19T16:55:51;99903.91;;;27.80;40.72
18022;BME280;9136;48.822;7.966;2022-08-19T16:58:39;99910.47;;;27.85;40.82
18022;BME280;9136;48.822;7.966;2022-08-19T17:01:29;99927.34;;;27.71;40.66
18022;BME280;9136;48.822;7.966;2022-08-19T17:04:17;99911.09;;;27.55;41.34
18022;BME280;9136;48.822;7.966;2022-08-19T17:07:05;99919.03;;;27.56;41.70
18022;BME280;9136;48.822;7.966;2022-08-19T17:09:56;99906.72;;;27.54;41.24
18022;BME280;9136;48.822;7.966;2022-08-19T17:12:43;99913.97;;;27.45;41.19
18022;BME280;9136;48.822;7.966;2022-08-19T17:15:32;99929.13;;;27.38;41.66
18022;BME280;9136;48.822;7.966;2022-08-19T17:18:21;99912.22;;;27.20;41.67
18022;BME280;9136;48.822;7.966;2022-08-19T17:21:10;99937.19;;;27.30;41.28
18022;BME280;9136;48.822;7.966;2022-08-19T17:23:59;99912.69;;;27.07;41.82
18022;BME280;9136;48.822;7.966;2022-08-19T17:26:47;99927.69;;;27.09;41.24
18022;BME280;9136;48.822;7.966;2022-08-19T17:29:35;99914.09;;;26.85;41.97
18022;BME280;9136;48.822;7.966;2022-08-19T17:32:23;99920.00;;;26.89;41.77
18022;BME280;9136;48.822;7.966;2022-08-19T17:35:14;99943.09;;;26.91;41.82
18022;BME280;9136;48.822;7.966;2022-08-19T17:38:05;99935.75;;;26.67;42.82
18022;BME280;9136;48.822;7.966;2022-08-19T17:40:53;99945.75;;;26.49;42.81
18022;BME280;9136;48.822;7.966;2022-08-19T17:43:51;99946.31;;;26.35;43.25
18022;BME280;9136;48.822;7.966;2022-08-19T17:46:39;99938.44;;;26.15;43.23
18022;BME280;9136;48.822;7.966;2022-08-19T17:49:27;99937.44;;;26.16;44.03
18022;BME280;9136;48.822;7.966;2022-08-19T17:52:16;99926.94;;;26.13;43.86
18022;BME280;9136;48.822;7.966;2022-08-19T17:55:05;99946.22;;;26.01;43.77
18022;BME280;9136;48.822;7.966;2022-08-19T17:57:55;99956.97;;;26.01;43.61
18022;BME280;9136;48.822;7.966;2022-08-19T18:00:43;99944.06;;;25.86;43.30
18022;BME280;9136;48.822;7.966;2022-08-19T18:03:31;99929.19;;;25.64;43.37
18022;BME280;9136;48.822;7.966;2022-08-19T18:06:19;99941.28;;;25.60;44.00
18022;BME280;9136;48.822;7.966;2022-08-19T18:09:08;99949.50;;;25.59;43.59
18022;BME280;9136;48.822;7.966;2022-08-19T18:11:57;99942.88;;;25.53;43.20
18022;BME280;9136;48.822;7.966;2022-08-19T18:14:45;99947.25;;;25.36;44.05
18022;BME280;9136;48.822;7.966;2022-08-19T18:17:33;99957.22;;;25.26;44.24
18022;BME280;9136;48.822;7.966;2022-08-19T18:20:22;99949.13;;;24.99;44.30
18022;BME280;9136;48.822;7.966;2022-08-19T18:23:09;99965.59;;;24.86;45.37
18022;BME280;9136;48.822;7.966;2022-08-19T18:25:59;99965.25;;;24.71;45.12
18022;BME280;9136;48.822;7.966;2022-08-19T18:28:47;99953.81;;;24.60;45.89
18022;BME280;9136;48.822;7.966;2022-08-19T18:31:36;99968.81;;;24.62;46.30
18022;BME280;9136;48.822;7.966;2022-08-19T18:34:25;99973.47;;;24.60;46.14
18022;BME280;9136;48.822;7.966;2022-08-19T18:37:12;99979.41;;;24.64;46.23
18022;BME280;9136;48.822;7.966;2022-08-19T18:40:00;99979.00;;;24.49;46.67
18022;BME280;9136;48.822;7.966;2022-08-19T18:43:07;99981.13;;;24.55;46.83
18022;BME280;9136;48.822;7.966;2022-08-19T18:46:13;99988.50;;;24.43;47.94
18022;BME280;9136;48.822;7.966;2022-08-19T18:49:21;99983.28;;;24.22;49.04
18022;BME280;9136;48.822;7.966;2022-08-19T18:52:09;100008.69;;;24.18;49.92
18022;BME280;9136;48.822;7.966;2022-08-19T18:54:56;100001.19;;;24.22;49.86
18022;BME280;9136;48.822;7.966;2022-08-19T18:57:44;100023.66;;;24.11;51.28
18022;BME280;9136;48.822;7.966;2022-08-19T19:00:35;100019.16;;;24.12;52.60
18022;BME280;9136;48.822;7.966;2022-08-19T19:03:23;100018.03;;;24.24;54.72
18022;BME280;9136;48.822;7.966;2022-08-19T19:06:12;100015.91;;;24.18;55.83
18022;BME280;9136;48.822;7.966;2022-08-19T19:09:00;100029.47;;;24.16;56.94
18022;BME280;9136;48.822;7.966;2022-08-19T19:11:50;100050.25;;;24.14;58.58
18022;BME280;9136;48.822;7.966;2022-08-19T19:14:40;100041.19;;;24.06;60.05
18022;BME280;9136;48.822;7.966;2022-08-19T19:17:30;100036.69;;;23.96;62.20
18022;BME280;9136;48.822;7.966;2022-08-19T19:20:18;100047.81;;;23.92;63.17
18022;BME280;9136;48.822;7.966;2022-08-19T19:23:06;100039.75;;;23.73;65.56
18022;BME280;9136;48.822;7.966;2022-08-19T19:25:54;100044.41;;;23.70;66.96
18022;BME280;9136;48.822;7.966;2022-08-19T19:28:42;100075.22;;;23.86;67.62
18022;BME280;9136;48.822;7.966;2022-08-19T19:31:33;100072.22;;;23.79;68.17
18022;BME280;9136;48.822;7.966;2022-08-19T19:34:23;100054.44;;;23.68;69.48
18022;BME280;9136;48.822;7.966;2022-08-19T19:37:11;100055.81;;;23.63;70.09
18022;BME280;9136;48.822;7.966;2022-08-19T19:39:58;100051.66;;;23.49;71.03
18022;BME280;9136;48.822;7.966;2022-08-19T19:42:47;100062.97;;;23.53;71.54
18022;BME280;9136;48.822;7.966;2022-08-19T19:45:37;100069.88;;;23.46;72.18
18022;BME280;9136;48.822;7.966;2022-08-19T19:48:25;100095.97;;;23.53;72.79
18022;BME280;9136;48.822;7.966;2022-08-19T19:51:15;100096.09;;;23.42;73.58
18022;BME280;9136;48.822;7.966;2022-08-19T19:54:05;100077.19;;;23.13;74.84
18022;BME280;9136;48.822;7.966;2022-08-19T19:56:53;100086.88;;;23.04;76.41
18022;BME280;9136;48.822;7.966;2022-08-19T19:59:41;100095.78;;;23.05;77.18
18022;BME280;9136;48.822;7.966;2022-08-19T20:02:29;100091.66;;;23.01;77.36
18022;BME280;9136;48.822;7.966;2022-08-19T20:05:17;100103.56;;;22.87;78.74
18022;BME280;9136;48.822;7.966;2022-08-19T20:08:08;100112.19;;;22.91;79.11
18022;BME280;9136;48.822;7.966;2022-08-19T20:11:25;100095.97;;;22.71;80.04
18022;BME280;9136;48.822;7.966;2022-08-19T20:14:18;100117.06;;;22.65;81.67
18022;BME280;9136;48.822;7.966;2022-08-19T20:17:06;100125.69;;;22.68;81.95
18022;BME280;9136;48.822;7.966;2022-08-19T20:19:54;100102.53;;;22.46;83.11
18022;BME280;9136;48.822;7.966;2022-08-19T20:22:43;100108.75;;;22.47;83.56
18022;BME280;9136;48.822;7.966;2022-08-19T20:25:32;100114.22;;;22.45;83.95
18022;BME280;9136;48.822;7.966;2022-08-19T20:28:20;100122.53;;;22.42;84.18
18022;BME280;9136;48.822;7.966;2022-08-19T20:31:09;100123.66;;;22.40;84.61
18022;BME280;9136;48.822;7.966;2022-08-19T20:33:57;100129.75;;;22.31;85.34
18022;BME280;9136;48.822;7.966;2022-08-19T20:36:44;100137.44;;;22.24;86.27
18022;BME280;9136;48.822;7.966;2022-08-19T20:39:32;100125.88;;;22.23;86.44
18022;BME280;9136;48.822;7.966;2022-08-19T20:42:21;100137.41;;;22.35;85.87
18022;BME280;9136;48.822;7.966;2022-08-19T20:45:12;100161.34;;;22.37;86.71
18022;BME280;9136;48.822;7.966;2022-08-19T20:48:01;100142.78;;;22.24;87.14
18022;BME280;9136;48.822;7.966;2022-08-19T20:50:50;100149.25;;;22.21;88.00
18022;BME280;9136;48.822;7.966;2022-08-19T20:53:38;100125.53;;;22.06;88.65
18022;BME280;9136;48.822;7.966;2022-08-19T20:56:26;100136.72;;;21.99;89.46
18022;BME280;9136;48.822;7.966;2022-08-19T20:59:16;100127.66;;;21.91;89.99
18022;BME280;9136;48.822;7.966;2022-08-19T21:02:05;100130.69;;;21.86;90.73
18022;BME280;9136;48.822;7.966;2022-08-19T21:04:53;100154.63;;;21.88;92.07
18022;BME280;9136;48.822;7.966;2022-08-19T21:07:40;100121.38;;;21.58;93.67
18022;BME280;9136;48.822;7.966;2022-08-19T21:10:29;100147.38;;;21.56;95.05
18022;BME280;9136;48.822;7.966;2022-08-19T21:13:18;100148.59;;;21.52;96.30
18022;BME280;9136;48.822;7.966;2022-08-19T21:16:07;100139.72;;;21.40;97.79
18022;BME280;9136;48.822;7.966;2022-08-19T21:18:55;100144.19;;;21.29;99.50